createdAt,value
2017-12-03T00:02:20.242Z,-0.60
2017-12-03T00:04:47.291Z,-0.60
2017-12-03T00:07:14.354Z,-0.60
2017-12-03T00:09:41.503Z,-0.60
2017-12-03T00:12:08.614Z,-0.60
2017-12-03T00:14:34.951Z,-0.60
2017-12-03T00:17:01.262Z,-0.60
2017-12-03T00:19:27.578Z,-0.60
2017-12-03T00:21:53.905Z,-0.50
2017-12-03T00:24:20.218Z,-0.50
2017-12-03T00:26:46.537Z,-0.50
2017-12-03T00:29:14.278Z,-0.60
2017-12-03T00:31:40.606Z,-0.60
2017-12-03T00:34:06.934Z,-0.60
2017-12-03T00:36:33.307Z,-0.60
2017-12-03T00:38:59.626Z,-0.60
2017-12-03T00:41:26.674Z,-0.50
2017-12-03T00:43:54.651Z,-0.40
2017-12-03T00:46:20.958Z,-0.40
2017-12-03T00:48:47.335Z,-0.40
2017-12-03T00:51:13.651Z,-0.50
2017-12-03T00:53:39.977Z,-0.60
2017-12-03T00:56:07.034Z,-0.50
2017-12-03T00:58:33.380Z,-0.50
2017-12-03T01:00:59.712Z,-0.50
2017-12-03T01:03:26.036Z,-0.40
2017-12-03T01:05:52.414Z,-0.50
2017-12-03T01:08:18.725Z,-0.40
2017-12-03T01:10:45.066Z,-0.40
2017-12-03T01:13:11.390Z,-0.40
2017-12-03T01:15:37.846Z,-0.30
2017-12-03T01:18:04.197Z,-0.40
2017-12-03T01:20:31.322Z,-0.40
2017-12-03T01:22:57.695Z,-0.40
2017-12-03T01:25:24.808Z,-0.40
2017-12-03T01:27:51.179Z,-0.40
2017-12-03T01:30:17.534Z,-0.40
2017-12-03T01:32:44.795Z,-0.40
2017-12-03T01:35:11.142Z,-0.40
2017-12-03T01:37:37.490Z,-0.30
2017-12-03T01:40:03.854Z,-0.60
2017-12-03T01:42:30.938Z,-0.60
2017-12-03T01:44:57.322Z,-0.60
2017-12-03T01:47:23.662Z,-0.60
2017-12-03T01:49:50.735Z,-0.50
2017-12-03T01:52:17.082Z,-0.50
2017-12-03T01:54:43.390Z,-0.50
2017-12-03T01:57:09.735Z,-0.40
2017-12-03T01:59:36.147Z,-0.40
2017-12-03T02:02:03.230Z,-0.40
2017-12-03T02:04:29.591Z,-0.40
2017-12-03T02:06:55.954Z,-0.40
2017-12-03T02:09:23.060Z,-0.20
2017-12-03T02:11:49.398Z,-0.30
2017-12-03T02:14:15.726Z,-0.40
2017-12-03T02:16:42.074Z,-0.40
2017-12-03T02:19:08.421Z,-0.40
2017-12-03T02:21:35.627Z,-0.40
2017-12-03T02:24:02.122Z,-0.50
2017-12-03T02:26:28.466Z,-0.50
2017-12-03T02:28:54.806Z,-0.60
2017-12-03T02:31:21.118Z,-0.60
2017-12-03T02:33:48.232Z,-0.70
2017-12-03T02:36:14.570Z,-0.70
2017-12-03T02:38:40.911Z,-0.60
2017-12-03T02:41:07.239Z,-0.60
2017-12-03T02:43:33.584Z,-0.50
2017-12-03T02:46:00.723Z,-0.50
2017-12-03T02:48:27.087Z,-0.50
2017-12-03T02:50:53.444Z,-0.40
2017-12-03T02:53:19.783Z,-0.60
2017-12-03T02:55:46.154Z,-0.50
2017-12-03T02:58:12.547Z,-0.50
2017-12-03T03:00:38.875Z,-0.60
2017-12-03T03:03:05.206Z,-0.50
2017-12-03T03:05:32.278Z,-0.40
2017-12-03T03:07:58.622Z,-0.40
2017-12-03T03:10:24.995Z,-0.40
2017-12-03T03:12:51.379Z,-0.50
2017-12-03T03:15:17.702Z,-0.50
2017-12-03T03:17:44.022Z,-0.40
2017-12-03T03:20:10.374Z,-0.50
2017-12-03T03:22:36.708Z,-0.50
2017-12-03T03:25:03.097Z,-0.50
2017-12-03T03:27:29.458Z,-0.40
2017-12-03T03:29:55.806Z,-0.40
2017-12-03T03:32:22.174Z,-0.40
2017-12-03T03:34:49.278Z,-0.40
2017-12-03T03:37:15.638Z,-0.40
2017-12-03T03:39:42.018Z,-0.40
2017-12-03T03:42:08.371Z,-0.40
2017-12-03T03:44:34.718Z,-0.40
2017-12-03T03:47:01.067Z,-0.40
2017-12-03T03:49:28.308Z,-0.40
2017-12-03T03:51:54.645Z,-0.40
2017-12-03T03:54:20.996Z,-0.40
2017-12-03T03:56:48.107Z,-0.40
2017-12-03T03:59:14.480Z,-0.40
2017-12-03T04:01:41.566Z,-0.40
2017-12-03T04:04:07.947Z,-0.50
2017-12-03T04:06:35.082Z,-0.50
2017-12-03T04:09:01.450Z,-0.50
2017-12-03T04:11:28.558Z,-0.40
2017-12-03T04:13:54.898Z,-0.40
2017-12-03T04:16:21.251Z,-0.40
2017-12-03T04:18:48.339Z,-0.40
2017-12-03T04:21:14.678Z,-0.40
2017-12-03T04:23:41.047Z,-0.50
2017-12-03T04:26:07.377Z,-0.40
2017-12-03T04:28:33.731Z,-0.40
2017-12-03T04:31:00.811Z,-0.50
2017-12-03T04:33:27.143Z,-0.50
2017-12-03T04:35:53.654Z,-0.50
2017-12-03T04:38:20.786Z,-0.60
2017-12-03T04:40:47.175Z,-0.60
2017-12-03T04:43:13.580Z,-0.60
2017-12-03T04:45:39.983Z,-0.50
2017-12-03T04:48:06.379Z,-0.50
2017-12-03T04:50:32.775Z,-0.40
2017-12-03T04:52:59.186Z,-0.40
2017-12-03T04:55:25.579Z,-0.30
2017-12-03T04:57:53.064Z,-0.30
2017-12-03T05:00:19.496Z,-0.20
2017-12-03T05:02:45.918Z,-0.20
2017-12-03T05:05:12.306Z,-0.20
2017-12-03T05:07:38.710Z,-0.20
2017-12-03T05:10:05.135Z,-0.10
2017-12-03T05:12:31.566Z,-0.20
2017-12-03T05:14:57.964Z,-0.20
2017-12-03T05:17:25.091Z,-0.30
2017-12-03T05:19:51.658Z,-0.30
2017-12-03T05:22:18.066Z,-0.40
2017-12-03T05:24:44.455Z,-0.40
2017-12-03T05:27:10.850Z,-0.40
2017-12-03T05:29:37.246Z,-0.30
2017-12-03T05:32:04.438Z,-0.20
2017-12-03T05:34:30.862Z,-0.20
2017-12-03T05:36:58.314Z,-0.20
2017-12-03T05:39:24.715Z,-0.20
2017-12-03T05:41:52.991Z,-0.30
2017-12-03T05:44:20.132Z,-0.30
2017-12-03T05:46:46.524Z,-0.30
2017-12-03T05:49:12.902Z,-0.30
2017-12-03T05:51:39.291Z,-0.30
2017-12-03T05:54:05.697Z,-0.30
2017-12-03T05:56:32.093Z,-0.30
2017-12-03T05:58:58.483Z,-0.30
2017-12-03T06:01:25.758Z,-0.40
2017-12-03T06:03:52.155Z,-0.40
2017-12-03T06:06:19.538Z,-0.40
2017-12-03T06:08:45.941Z,-0.50
2017-12-03T06:11:12.350Z,-0.40
2017-12-03T06:13:40.474Z,-0.60
2017-12-03T06:16:07.859Z,-0.60
2017-12-03T06:18:34.242Z,-0.50
2017-12-03T06:21:00.644Z,-0.70
2017-12-03T06:23:27.778Z,-0.70
2017-12-03T06:25:54.166Z,-0.80
2017-12-03T06:28:21.581Z,-0.80
2017-12-03T06:33:20.998Z,-0.70
2017-12-03T06:35:47.407Z,-0.70
2017-12-03T06:38:13.826Z,-0.60
2017-12-03T06:40:41.490Z,-0.60
2017-12-03T06:43:07.887Z,-0.60
2017-12-03T06:45:34.279Z,-0.60
2017-12-03T06:48:00.671Z,-0.80
2017-12-03T06:50:27.061Z,-0.80
2017-12-03T06:52:53.491Z,-0.70
2017-12-03T06:55:19.879Z,-0.70
2017-12-03T06:57:46.264Z,-0.60
2017-12-03T07:00:14.418Z,-0.60
2017-12-03T07:02:40.832Z,-0.60
2017-12-03T07:05:07.808Z,-0.50
2017-12-03T07:07:35.219Z,-0.50
2017-12-03T07:10:01.629Z,-0.40
2017-12-03T07:12:28.774Z,-0.30
2017-12-03T07:14:55.927Z,-0.30
2017-12-03T07:17:23.094Z,-0.30
2017-12-03T07:19:49.486Z,-0.30
2017-12-03T07:22:15.894Z,-0.20
2017-12-03T07:24:42.297Z,-0.10
2017-12-03T07:27:08.747Z,-0.10
2017-12-03T07:29:35.162Z,0.00
2017-12-03T07:32:01.571Z,0.00
2017-12-03T07:34:28.763Z,0.10
2017-12-03T07:36:55.311Z,0.10
2017-12-03T07:39:21.778Z,0.00
2017-12-03T07:41:48.205Z,0.10
2017-12-03T07:44:14.668Z,0.10
2017-12-03T07:46:41.855Z,0.10
2017-12-03T07:49:08.314Z,0.00
2017-12-03T07:51:34.760Z,0.10
2017-12-03T07:54:01.215Z,0.00
2017-12-03T07:56:28.530Z,0.00
2017-12-03T07:58:54.930Z,0.00
2017-12-03T08:01:21.319Z,0.00
2017-12-03T08:03:47.764Z,0.10
2017-12-03T08:06:14.178Z,0.20
2017-12-03T08:08:40.598Z,0.30
2017-12-03T08:11:06.971Z,0.20
2017-12-03T08:13:34.116Z,0.20
2017-12-03T08:16:01.290Z,0.30
2017-12-03T08:18:27.691Z,0.30
2017-12-03T08:20:54.090Z,0.30
2017-12-03T08:23:21.507Z,0.40
2017-12-03T08:25:48.884Z,0.60
2017-12-03T08:28:16.922Z,0.60
2017-12-03T08:30:44.082Z,0.30
2017-12-03T08:33:12.820Z,0.30
2017-12-03T08:35:39.254Z,0.20
2017-12-03T08:38:05.663Z,0.30
2017-12-03T08:40:32.071Z,0.40
2017-12-03T08:42:59.218Z,0.40
2017-12-03T08:45:27.339Z,0.50
2017-12-03T08:47:53.758Z,0.50
2017-12-03T08:50:21.247Z,0.50
2017-12-03T08:52:47.911Z,0.60
2017-12-03T08:55:15.049Z,0.70
2017-12-03T08:57:41.455Z,0.70
2017-12-03T09:00:07.879Z,0.70
2017-12-03T09:02:34.291Z,0.80
2017-12-03T09:05:00.754Z,0.70
2017-12-03T09:07:27.158Z,0.60
2017-12-03T09:09:53.546Z,0.70
2017-12-03T09:12:19.947Z,0.70
2017-12-03T09:14:46.343Z,0.50
2017-12-03T09:17:14.356Z,0.20
2017-12-03T09:19:40.798Z,0.20
2017-12-03T09:22:07.211Z,0.30
2017-12-03T09:24:33.610Z,0.50
2017-12-03T09:27:00.759Z,0.60
2017-12-03T09:29:27.939Z,0.60
2017-12-03T09:31:54.351Z,0.60
2017-12-03T09:34:21.506Z,0.80
2017-12-03T09:36:48.655Z,0.80
2017-12-03T09:39:15.077Z,0.80
2017-12-03T09:41:42.272Z,0.50
2017-12-03T09:44:08.670Z,0.50
2017-12-03T09:46:35.803Z,0.50
2017-12-03T09:49:02.495Z,0.50
2017-12-03T09:51:28.897Z,0.60
2017-12-03T09:53:56.031Z,0.60
2017-12-03T09:56:23.192Z,0.60
2017-12-03T09:58:50.338Z,0.60
2017-12-03T10:01:17.474Z,0.60
2017-12-03T10:03:43.874Z,0.60
2017-12-03T10:06:11.466Z,0.60
2017-12-03T10:08:37.864Z,0.40
2017-12-03T10:11:04.267Z,0.30
2017-12-03T10:13:30.667Z,0.20
2017-12-03T10:15:57.084Z,-0.10
2017-12-03T10:18:23.507Z,-0.10
2017-12-03T10:20:50.102Z,-0.20
2017-12-03T10:23:17.290Z,-0.10
2017-12-03T10:25:43.750Z,-0.10
2017-12-03T10:28:10.151Z,0.00
2017-12-03T10:30:36.591Z,0.10
2017-12-03T10:33:02.990Z,0.20
2017-12-03T10:35:29.376Z,0.20
2017-12-03T10:38:05.833Z,0.20
2017-12-03T10:40:32.970Z,0.50
2017-12-03T10:42:59.357Z,0.40
2017-12-03T10:45:27.079Z,0.60
2017-12-03T10:47:53.463Z,0.60
2017-12-03T10:50:21.806Z,0.60
2017-12-03T10:52:48.353Z,0.60
2017-12-03T10:55:14.814Z,0.70
2017-12-03T10:57:41.952Z,0.60
2017-12-03T11:00:09.130Z,0.60
2017-12-03T11:02:36.578Z,0.60
2017-12-03T11:05:04.703Z,0.60
2017-12-03T11:07:31.987Z,0.70
2017-12-03T11:09:59.400Z,0.70
2017-12-03T11:12:25.791Z,0.80
2017-12-03T11:14:52.931Z,1.00
2017-12-03T11:17:20.059Z,0.90
2017-12-03T11:19:46.418Z,0.80
2017-12-03T11:22:13.683Z,0.70
2017-12-03T11:24:40.855Z,0.60
2017-12-03T11:27:07.228Z,0.60
2017-12-03T11:29:33.607Z,0.50
2017-12-03T11:31:59.999Z,0.40
2017-12-03T11:34:26.378Z,0.30
2017-12-03T11:36:53.792Z,0.30
2017-12-03T11:39:20.210Z,0.40
2017-12-03T11:41:46.739Z,0.50
2017-12-03T11:44:13.185Z,0.50
2017-12-03T11:46:40.563Z,0.40
2017-12-03T11:49:07.733Z,0.30
2017-12-03T11:51:34.875Z,0.20
2017-12-03T11:54:01.263Z,0.20
2017-12-03T11:56:27.747Z,0.20
2017-12-03T11:58:54.871Z,0.20
2017-12-03T12:01:21.279Z,0.20
2017-12-03T12:03:47.662Z,0.10
2017-12-03T12:06:15.755Z,0.20
2017-12-03T12:08:42.123Z,0.20
2017-12-03T12:11:08.491Z,0.30
2017-12-03T12:13:36.646Z,0.50
2017-12-03T12:16:03.007Z,0.50
2017-12-03T12:18:30.166Z,0.70
2017-12-03T12:20:57.537Z,0.70
2017-12-03T12:23:23.918Z,0.70
2017-12-03T12:25:50.351Z,0.70
2017-12-03T12:28:16.726Z,0.60
2017-12-03T12:30:43.138Z,0.50
2017-12-03T12:33:09.520Z,0.60
2017-12-03T12:35:35.943Z,0.70
2017-12-03T12:38:02.306Z,0.70
2017-12-03T12:40:28.704Z,0.70
2017-12-03T12:42:55.846Z,0.80
2017-12-03T12:45:22.247Z,0.70
2017-12-03T12:47:48.648Z,0.50
2017-12-03T12:50:15.052Z,0.30
2017-12-03T12:52:41.743Z,0.30
2017-12-03T12:55:08.286Z,0.20
2017-12-03T12:57:35.427Z,0.40
2017-12-03T13:00:01.851Z,0.40
2017-12-03T13:02:28.247Z,0.40
2017-12-03T13:04:54.615Z,0.30
2017-12-03T13:07:20.990Z,0.30
2017-12-03T13:09:47.387Z,0.30
2017-12-03T13:12:13.750Z,0.30
2017-12-03T13:14:40.847Z,0.10
2017-12-03T13:17:07.228Z,0.00
2017-12-03T13:19:34.355Z,-0.10
2017-12-03T13:22:01.727Z,-0.10
2017-12-03T13:24:28.917Z,0.10
2017-12-03T13:26:55.286Z,0.10
2017-12-03T13:29:21.646Z,0.00
2017-12-03T13:31:48.771Z,-0.20
2017-12-03T13:34:15.147Z,-0.20
2017-12-03T13:36:41.915Z,-0.20
2017-12-03T13:39:08.291Z,-0.30
2017-12-03T13:41:34.672Z,-0.40
2017-12-03T13:44:01.035Z,-0.40
2017-12-03T13:46:27.403Z,-0.40
2017-12-03T13:48:54.522Z,-0.40
2017-12-03T13:51:20.894Z,-0.40
2017-12-03T13:53:48.026Z,-0.40
2017-12-03T13:56:14.455Z,-0.40
2017-12-03T13:58:40.869Z,-0.40
2017-12-03T14:01:07.232Z,-0.50
2017-12-03T14:03:34.387Z,-0.50
2017-12-03T14:06:01.478Z,-0.50
2017-12-03T14:08:27.891Z,-0.50
2017-12-03T14:10:55.343Z,-0.50
2017-12-03T14:13:23.818Z,-0.40
2017-12-03T14:15:50.954Z,-0.20
2017-12-03T14:18:18.067Z,-0.30
2017-12-03T14:20:44.515Z,-0.30
2017-12-03T14:23:11.948Z,-0.20
2017-12-03T14:25:38.351Z,-0.20
2017-12-03T14:28:04.826Z,-0.30
2017-12-03T14:30:31.186Z,-0.30
2017-12-03T14:32:57.560Z,-0.40
2017-12-03T14:35:23.954Z,-0.40
2017-12-03T14:37:50.355Z,-0.50
2017-12-03T14:40:16.747Z,-0.60
2017-12-03T14:42:43.895Z,-0.80
2017-12-03T14:45:11.043Z,-1.00
2017-12-03T14:47:38.541Z,-1.00
2017-12-03T14:50:05.007Z,-1.00
2017-12-03T14:52:31.407Z,-1.00
2017-12-03T14:54:57.780Z,-1.00
2017-12-03T14:57:24.151Z,-0.90
2017-12-03T14:59:50.527Z,-0.90
2017-12-03T15:02:17.273Z,-1.00
2017-12-03T15:04:43.714Z,-0.90
2017-12-03T15:07:10.080Z,-0.90
2017-12-03T15:09:36.458Z,-1.10
2017-12-03T15:12:02.844Z,-1.00
2017-12-03T15:14:29.293Z,-0.90
2017-12-03T15:16:55.711Z,-0.90
2017-12-03T15:19:22.871Z,-0.90
2017-12-03T15:21:49.258Z,-0.90
2017-12-03T15:24:15.717Z,-0.80
2017-12-03T15:26:43.171Z,-0.70
2017-12-03T15:29:10.432Z,-0.80
2017-12-03T15:31:36.854Z,-0.80
2017-12-03T15:34:03.264Z,-0.90
2017-12-03T15:36:29.663Z,-0.90
2017-12-03T15:38:56.083Z,-0.90
2017-12-03T15:41:22.459Z,-1.00
2017-12-03T15:43:48.932Z,-1.10
2017-12-03T15:46:16.134Z,-1.20
2017-12-03T15:48:42.698Z,-1.20
2017-12-03T15:51:09.127Z,-1.10
2017-12-03T15:53:35.520Z,-1.10
2017-12-03T15:56:02.019Z,-1.00
2017-12-03T15:58:29.142Z,-1.10
2017-12-03T16:00:55.530Z,-1.10
2017-12-03T16:03:21.967Z,-1.10
2017-12-03T16:05:48.353Z,-1.00
2017-12-03T16:08:14.763Z,-1.10
2017-12-03T16:10:41.154Z,-1.10
2017-12-03T16:13:08.286Z,-1.20
2017-12-03T16:15:35.415Z,-1.30
2017-12-03T16:18:01.791Z,-1.30
2017-12-03T16:20:28.377Z,-1.20
2017-12-03T16:22:54.771Z,-1.20
2017-12-03T16:25:21.155Z,-1.20
2017-12-03T16:30:20.706Z,-1.10
2017-12-03T16:32:47.822Z,-1.20
2017-12-03T16:35:14.203Z,-1.20
2017-12-03T16:37:40.615Z,-1.10
2017-12-03T16:40:08.335Z,-1.30
2017-12-03T16:42:34.730Z,-1.30
2017-12-03T16:45:01.184Z,-1.20
2017-12-03T16:47:27.663Z,-1.20
2017-12-03T16:49:54.096Z,-1.20
2017-12-03T16:52:20.479Z,-1.10
2017-12-03T16:54:46.906Z,-1.00
2017-12-03T16:57:14.383Z,-1.10
2017-12-03T16:59:40.803Z,-1.10
2017-12-03T17:02:07.294Z,-1.10
2017-12-03T17:04:33.667Z,-1.10
2017-12-03T17:07:00.039Z,-1.10
2017-12-03T17:09:28.246Z,-1.00
2017-12-03T17:11:55.387Z,-0.80
2017-12-03T17:14:21.810Z,-0.90
2017-12-03T17:16:48.186Z,-0.70
2017-12-03T17:19:15.547Z,-1.00
2017-12-03T17:21:41.942Z,-1.20
2017-12-03T17:24:08.349Z,-1.30
2017-12-03T17:26:34.783Z,-1.20
2017-12-03T17:29:01.202Z,-1.20
2017-12-03T17:31:27.607Z,-1.50
2017-12-03T17:33:54.142Z,-1.60
2017-12-03T17:36:20.707Z,-1.60
2017-12-03T17:38:47.110Z,-1.60
2017-12-03T17:41:14.219Z,-1.80
2017-12-03T17:43:40.599Z,-1.80
2017-12-03T17:46:06.967Z,-1.80
2017-12-03T17:48:33.335Z,-1.70
2017-12-03T17:50:59.744Z,-1.90
2017-12-03T17:53:26.142Z,-1.80
2017-12-03T17:55:52.511Z,-1.80
2017-12-03T17:58:18.898Z,-1.80
2017-12-03T18:00:45.267Z,-1.80
2017-12-03T18:03:11.642Z,-1.80
2017-12-03T18:05:38.778Z,-1.70
2017-12-03T18:08:05.143Z,-1.70
2017-12-03T18:10:31.516Z,-1.70
2017-12-03T18:12:57.896Z,-1.70
2017-12-03T18:15:25.011Z,-1.80
2017-12-03T18:17:51.509Z,-1.90
2017-12-03T18:20:18.707Z,-1.70
2017-12-03T18:22:45.112Z,-1.70
2017-12-03T18:25:12.523Z,-1.70
2017-12-03T18:27:39.683Z,-1.80
2017-12-03T18:30:06.618Z,-1.80
2017-12-03T18:32:33.787Z,-1.80
2017-12-03T18:35:00.183Z,-1.80
2017-12-03T18:37:26.623Z,-1.80
2017-12-03T18:39:53.045Z,-1.80
2017-12-03T18:42:19.479Z,-1.90
2017-12-03T18:44:46.134Z,-1.90
2017-12-03T18:47:13.302Z,-2.00
2017-12-03T18:49:40.490Z,-2.10
2017-12-03T18:52:06.935Z,-2.20
2017-12-03T18:54:33.420Z,-2.10
2017-12-03T18:57:00.596Z,-2.10
2017-12-03T18:59:27.014Z,-2.20
2017-12-03T19:01:53.438Z,-2.10
2017-12-03T19:04:20.587Z,-2.20
2017-12-03T19:06:47.768Z,-2.20
2017-12-03T19:09:14.163Z,-2.20
2017-12-03T19:11:40.607Z,-2.20
2017-12-03T19:14:07.781Z,-2.00
2017-12-03T19:16:34.183Z,-2.10
2017-12-03T19:19:01.364Z,-2.20
2017-12-03T19:21:27.784Z,-2.20
2017-12-03T19:23:54.936Z,-2.00
2017-12-03T19:26:21.298Z,-2.10
2017-12-03T19:28:47.695Z,-2.20
2017-12-03T19:31:14.812Z,-2.00
2017-12-03T19:33:41.238Z,-2.10
2017-12-03T19:36:07.619Z,-2.00
2017-12-03T19:41:07.125Z,-1.80
2017-12-03T19:43:34.262Z,-1.90
2017-12-03T19:46:01.402Z,-1.90
2017-12-03T19:48:27.821Z,-1.90
2017-12-03T19:50:54.231Z,-1.90
2017-12-03T19:53:20.625Z,-2.00
2017-12-03T19:55:47.810Z,-1.90
2017-12-03T19:58:14.942Z,-1.90
2017-12-03T20:00:42.059Z,-1.90
2017-12-03T20:03:08.468Z,-1.90
2017-12-03T20:05:34.850Z,-2.00
2017-12-03T20:08:03.048Z,-2.00
2017-12-03T20:10:29.474Z,-2.10
2017-12-03T20:12:55.875Z,-2.00
2017-12-03T20:15:22.295Z,-2.20
2017-12-03T20:17:48.674Z,-2.10
2017-12-03T20:20:15.067Z,-2.10
2017-12-03T20:22:41.490Z,-2.00
2017-12-03T20:25:07.915Z,-2.00
2017-12-03T20:27:34.766Z,-1.90
2017-12-03T20:30:01.155Z,-2.00
2017-12-03T20:32:27.561Z,-2.10
2017-12-03T20:34:54.704Z,-2.00
2017-12-03T20:37:21.889Z,-1.90
2017-12-03T20:39:48.290Z,-1.90
2017-12-03T20:42:14.737Z,-1.90
2017-12-03T20:44:41.960Z,-1.90
2017-12-03T20:47:08.327Z,-1.90
2017-12-03T20:49:35.478Z,-2.00
2017-12-03T20:52:02.631Z,-1.90
2017-12-03T20:54:30.750Z,-1.90
2017-12-03T20:56:57.276Z,-1.90
2017-12-03T20:59:23.678Z,-1.90
2017-12-03T21:01:50.120Z,-1.90
2017-12-03T21:04:16.491Z,-1.90
2017-12-03T21:06:42.890Z,-1.90
2017-12-03T21:09:09.287Z,-1.90
2017-12-03T21:11:35.681Z,-1.80
2017-12-03T21:14:02.051Z,-1.80
2017-12-03T21:16:28.481Z,-1.80
2017-12-03T21:18:54.884Z,-1.90
2017-12-03T21:21:21.298Z,-1.90
2017-12-03T21:23:47.719Z,-1.80
2017-12-03T21:26:14.130Z,-1.80
2017-12-03T21:28:41.247Z,-1.80
2017-12-03T21:31:07.655Z,-1.80
2017-12-03T21:33:34.060Z,-1.80
2017-12-03T21:36:00.451Z,-1.80
2017-12-03T21:38:26.814Z,-1.80
2017-12-03T21:40:53.942Z,-1.90
2017-12-03T21:43:20.307Z,-1.90
2017-12-03T21:45:46.710Z,-1.90
2017-12-03T21:48:13.074Z,-1.80
2017-12-03T21:50:39.434Z,-1.80
2017-12-03T21:53:05.823Z,-1.90
2017-12-03T21:55:32.936Z,-1.80
2017-12-03T21:57:59.318Z,-1.80
2017-12-03T22:00:26.443Z,-1.80
2017-12-03T22:02:52.833Z,-1.90
2017-12-03T22:05:19.221Z,-1.80
2017-12-03T22:07:46.390Z,-1.80
2017-12-03T22:10:12.798Z,-1.80
2017-12-03T22:12:39.159Z,-1.80
2017-12-03T22:15:05.538Z,-1.80
2017-12-03T22:17:31.946Z,-1.90
2017-12-03T22:19:58.307Z,-1.80
2017-12-03T22:22:24.666Z,-1.90
2017-12-03T22:24:52.802Z,-1.70
2017-12-03T22:27:19.178Z,-1.70
2017-12-03T22:29:46.318Z,-1.70
2017-12-03T22:32:12.702Z,-1.80
2017-12-03T22:34:39.103Z,-1.70
2017-12-03T22:37:07.220Z,-1.70
2017-12-03T22:39:33.635Z,-1.80
2017-12-03T22:41:59.975Z,-1.70
2017-12-03T22:44:26.322Z,-1.70
2017-12-03T22:46:52.705Z,-1.70
2017-12-03T22:49:19.791Z,-1.70
2017-12-03T22:51:46.166Z,-1.70
2017-12-03T22:54:12.546Z,-1.70
2017-12-03T22:56:38.898Z,-1.60
2017-12-03T22:59:05.255Z,-1.60
2017-12-03T23:01:31.606Z,-1.60
2017-12-03T23:03:58.694Z,-1.60
2017-12-03T23:06:25.060Z,-1.60
2017-12-03T23:08:52.430Z,-1.70
2017-12-03T23:11:18.814Z,-1.60
2017-12-03T23:13:45.214Z,-1.60
2017-12-03T23:16:12.339Z,-1.70
2017-12-03T23:18:38.698Z,-1.70
2017-12-03T23:21:05.799Z,-1.60
2017-12-03T23:23:32.215Z,-1.60
2017-12-03T23:25:59.374Z,-1.60
2017-12-03T23:28:25.806Z,-1.60
2017-12-03T23:30:52.939Z,-1.60
2017-12-03T23:33:19.350Z,-1.60
2017-12-03T23:35:46.504Z,-1.60
2017-12-03T23:38:14.613Z,-1.50
2017-12-03T23:40:40.983Z,-1.60
2017-12-03T23:43:07.416Z,-1.60
2017-12-03T23:45:33.794Z,-1.60
2017-12-03T23:48:00.134Z,-1.50
2017-12-03T23:50:26.539Z,-1.60
2017-12-03T23:52:53.653Z,-1.60
2017-12-03T23:55:20.038Z,-1.70
2017-12-03T23:57:46.430Z,-1.60
